sensor_id;sensor_type;location;lat;lon;timestamp;temperature;humidity
30648;DHT22;17683;53.360;9.736;2024-03-29T00:02:06;7.50;99.90
30648;DHT22;17683;53.360;9.736;2024-03-29T00:04:32;7.50;99.90
30648;DHT22;17683;53.360;9.736;2024-03-29T00:06:58;7.50;99.90
30648;DHT22;17683;53.360;9.736;2024-03-29T00:09:23;7.40;99.90
30648;DHT22;17683;53.360;9.736;2024-03-29T00:11:49;7.40;99.90
30648;DHT22;17683;53.360;9.736;2024-03-29T00:14:15;7.40;99.90
30648;DHT22;17683;53.360;9.736;2024-03-29T00:16:40;7.40;99.90
30648;DHT22;17683;53.360;9.736;2024-03-29T00:19:06;7.40;99.90
30648;DHT22;17683;53.360;9.736;2024-03-29T00:21:32;7.40;99.90
30648;DHT22;17683;53.360;9.736;2024-03-29T00:23:58;7.40;99.90
30648;DHT22;17683;53.360;9.736;2024-03-29T00:26:23;7.30;99.90
30648;DHT22;17683;53.360;9.736;2024-03-29T00:28:49;7.30;99.90
30648;DHT22;17683;53.360;9.736;2024-03-29T00:31:15;7.30;99.90
30648;DHT22;17683;53.360;9.736;2024-03-29T00:33:40;7.30;99.90
30648;DHT22;17683;53.360;9.736;2024-03-29T00:36:07;7.30;99.90
30648;DHT22;17683;53.360;9.736;2024-03-29T00:38:32;7.30;99.90
30648;DHT22;17683;53.360;9.736;2024-03-29T00:40:58;7.30;99.90
30648;DHT22;17683;53.360;9.736;2024-03-29T00:43:24;7.30;99.90
30648;DHT22;17683;53.360;9.736;2024-03-29T00:45:49;7.30;99.90
30648;DHT22;17683;53.360;9.736;2024-03-29T00:48:15;7.30;99.90
30648;DHT22;17683;53.360;9.736;2024-03-29T00:50:43;7.30;99.90
30648;DHT22;17683;53.360;9.736;2024-03-29T00:53:08;7.20;99.90
30648;DHT22;17683;53.360;9.736;2024-03-29T00:55:34;7.20;99.90
30648;DHT22;17683;53.360;9.736;2024-03-29T00:58:00;7.20;99.90
30648;DHT22;17683;53.360;9.736;2024-03-29T01:00:26;7.20;99.90
30648;DHT22;17683;53.360;9.736;2024-03-29T01:02:51;7.20;99.90
30648;DHT22;17683;53.360;9.736;2024-03-29T01:05:17;7.20;99.90
30648;DHT22;17683;53.360;9.736;2024-03-29T01:07:43;7.20;99.90
30648;DHT22;17683;53.360;9.736;2024-03-29T01:10:09;7.10;99.90
30648;DHT22;17683;53.360;9.736;2024-03-29T01:12:35;7.10;99.90
30648;DHT22;17683;53.360;9.736;2024-03-29T01:15:01;7.10;99.90
30648;DHT22;17683;53.360;9.736;2024-03-29T01:17:28;7.10;99.90
30648;DHT22;17683;53.360;9.736;2024-03-29T01:19:54;7.00;99.90
30648;DHT22;17683;53.360;9.736;2024-03-29T01:22:20;7.00;99.90
30648;DHT22;17683;53.360;9.736;2024-03-29T01:24:45;7.00;99.90
30648;DHT22;17683;53.360;9.736;2024-03-29T01:27:11;7.00;99.90
30648;DHT22;17683;53.360;9.736;2024-03-29T01:29:37;6.90;99.90
30648;DHT22;17683;53.360;9.736;2024-03-29T01:32:03;6.90;99.90
30648;DHT22;17683;53.360;9.736;2024-03-29T01:34:29;6.90;99.90
30648;DHT22;17683;53.360;9.736;2024-03-29T01:36:55;6.90;99.90
30648;DHT22;17683;53.360;9.736;2024-03-29T01:39:21;6.90;99.90
30648;DHT22;17683;53.360;9.736;2024-03-29T01:41:52;6.80;99.90
30648;DHT22;17683;53.360;9.736;2024-03-29T01:44:18;6.70;99.90
30648;DHT22;17683;53.360;9.736;2024-03-29T01:46:44;6.80;99.90
30648;DHT22;17683;53.360;9.736;2024-03-29T01:49:12;6.70;99.90
30648;DHT22;17683;53.360;9.736;2024-03-29T01:51:38;6.70;99.90
30648;DHT22;17683;53.360;9.736;2024-03-29T01:54:06;6.70;99.90
30648;DHT22;17683;53.360;9.736;2024-03-29T01:56:35;6.70;99.90
30648;DHT22;17683;53.360;9.736;2024-03-29T01:59:03;6.70;99.90
30648;DHT22;17683;53.360;9.736;2024-03-29T02:01:30;6.80;99.90
30648;DHT22;17683;53.360;9.736;2024-03-29T02:03:56;6.80;99.90
30648;DHT22;17683;53.360;9.736;2024-03-29T02:06:22;6.80;99.90
30648;DHT22;17683;53.360;9.736;2024-03-29T02:08:51;6.80;99.90
30648;DHT22;17683;53.360;9.736;2024-03-29T02:11:18;6.70;99.90
30648;DHT22;17683;53.360;9.736;2024-03-29T02:13:45;6.80;99.90
30648;DHT22;17683;53.360;9.736;2024-03-29T02:16:11;6.70;99.90
30648;DHT22;17683;53.360;9.736;2024-03-29T02:18:37;6.80;99.90
30648;DHT22;17683;53.360;9.736;2024-03-29T02:21:03;6.70;99.90
30648;DHT22;17683;53.360;9.736;2024-03-29T02:23:30;6.70;99.90
30648;DHT22;17683;53.360;9.736;2024-03-29T02:25:58;6.80;99.90
30648;DHT22;17683;53.360;9.736;2024-03-29T02:28:25;6.80;99.90
30648;DHT22;17683;53.360;9.736;2024-03-29T02:30:50;6.80;99.90
30648;DHT22;17683;53.360;9.736;2024-03-29T02:33:16;6.80;99.90
30648;DHT22;17683;53.360;9.736;2024-03-29T02:35:42;6.70;99.90
30648;DHT22;17683;53.360;9.736;2024-03-29T02:38:08;6.70;99.90
30648;DHT22;17683;53.360;9.736;2024-03-29T02:40:33;6.70;99.90
30648;DHT22;17683;53.360;9.736;2024-03-29T02:42:59;6.70;99.90
30648;DHT22;17683;53.360;9.736;2024-03-29T02:45:25;6.70;99.90
30648;DHT22;17683;53.360;9.736;2024-03-29T02:47:51;6.70;99.90
30648;DHT22;17683;53.360;9.736;2024-03-29T02:50:16;6.60;99.90
30648;DHT22;17683;53.360;9.736;2024-03-29T02:52:42;6.60;99.90
30648;DHT22;17683;53.360;9.736;2024-03-29T02:55:09;6.50;99.90
30648;DHT22;17683;53.360;9.736;2024-03-29T02:57:37;6.40;99.90
30648;DHT22;17683;53.360;9.736;2024-03-29T03:00:04;6.30;99.90
30648;DHT22;17683;53.360;9.736;2024-03-29T03:02:30;6.20;99.90
30648;DHT22;17683;53.360;9.736;2024-03-29T03:04:56;6.10;99.90
30648;DHT22;17683;53.360;9.736;2024-03-29T03:07:22;6.10;99.90
30648;DHT22;17683;53.360;9.736;2024-03-29T03:10:07;6.00;99.90
30648;DHT22;17683;53.360;9.736;2024-03-29T03:12:51;5.90;99.90
30648;DHT22;17683;53.360;9.736;2024-03-29T03:15:17;5.80;99.90
30648;DHT22;17683;53.360;9.736;2024-03-29T03:17:42;5.80;99.90
30648;DHT22;17683;53.360;9.736;2024-03-29T03:20:08;5.70;99.90
30648;DHT22;17683;53.360;9.736;2024-03-29T03:22:35;5.70;99.90
30648;DHT22;17683;53.360;9.736;2024-03-29T03:25:01;5.70;99.90
30648;DHT22;17683;53.360;9.736;2024-03-29T03:27:26;5.80;99.90
30648;DHT22;17683;53.360;9.736;2024-03-29T03:29:52;5.80;99.90
30648;DHT22;17683;53.360;9.736;2024-03-29T03:32:18;5.80;99.90
30648;DHT22;17683;53.360;9.736;2024-03-29T03:34:44;5.80;99.90
30648;DHT22;17683;53.360;9.736;2024-03-29T03:37:09;5.80;99.90
30648;DHT22;17683;53.360;9.736;2024-03-29T03:39:35;5.80;99.90
30648;DHT22;17683;53.360;9.736;2024-03-29T03:42:01;5.80;99.90
30648;DHT22;17683;53.360;9.736;2024-03-29T03:44:27;5.80;99.90
30648;DHT22;17683;53.360;9.736;2024-03-29T03:46:55;5.70;99.90
30648;DHT22;17683;53.360;9.736;2024-03-29T03:49:20;5.70;99.90
30648;DHT22;17683;53.360;9.736;2024-03-29T03:51:46;5.70;99.90
30648;DHT22;17683;53.360;9.736;2024-03-29T03:54:12;5.70;99.90
30648;DHT22;17683;53.360;9.736;2024-03-29T03:56:38;5.70;99.90
30648;DHT22;17683;53.360;9.736;2024-03-29T03:59:03;5.60;99.90
30648;DHT22;17683;53.360;9.736;2024-03-29T04:01:29;5.70;99.90
30648;DHT22;17683;53.360;9.736;2024-03-29T04:03:55;5.70;99.90
30648;DHT22;17683;53.360;9.736;2024-03-29T04:06:20;5.70;99.90
30648;DHT22;17683;53.360;9.736;2024-03-29T04:08:47;5.70;99.90
30648;DHT22;17683;53.360;9.736;2024-03-29T04:11:12;5.70;99.90
30648;DHT22;17683;53.360;9.736;2024-03-29T04:13:38;5.70;99.90
30648;DHT22;17683;53.360;9.736;2024-03-29T04:16:06;5.60;99.90
30648;DHT22;17683;53.360;9.736;2024-03-29T04:18:33;5.70;99.90
30648;DHT22;17683;53.360;9.736;2024-03-29T04:21:03;5.70;99.90
30648;DHT22;17683;53.360;9.736;2024-03-29T04:23:29;5.70;99.90
30648;DHT22;17683;53.360;9.736;2024-03-29T04:25:56;5.70;99.90
30648;DHT22;17683;53.360;9.736;2024-03-29T04:28:22;5.70;99.90
30648;DHT22;17683;53.360;9.736;2024-03-29T04:30:56;5.60;99.90
30648;DHT22;17683;53.360;9.736;2024-03-29T04:33:22;5.70;99.90
30648;DHT22;17683;53.360;9.736;2024-03-29T04:35:55;5.70;99.90
30648;DHT22;17683;53.360;9.736;2024-03-29T04:38:22;5.70;99.90
30648;DHT22;17683;53.360;9.736;2024-03-29T04:40:49;5.60;99.90
30648;DHT22;17683;53.360;9.736;2024-03-29T04:43:14;5.60;99.90
30648;DHT22;17683;53.360;9.736;2024-03-29T04:45:40;5.70;99.90
30648;DHT22;17683;53.360;9.736;2024-03-29T04:48:06;5.70;99.90
30648;DHT22;17683;53.360;9.736;2024-03-29T04:50:32;5.70;99.90
30648;DHT22;17683;53.360;9.736;2024-03-29T04:52:58;5.70;99.90
30648;DHT22;17683;53.360;9.736;2024-03-29T04:55:23;5.70;99.90
30648;DHT22;17683;53.360;9.736;2024-03-29T04:57:49;5.70;99.90
30648;DHT22;17683;53.360;9.736;2024-03-29T05:00:15;5.80;99.90
30648;DHT22;17683;53.360;9.736;2024-03-29T05:02:42;5.70;99.90
30648;DHT22;17683;53.360;9.736;2024-03-29T05:05:08;5.80;99.90
30648;DHT22;17683;53.360;9.736;2024-03-29T05:07:34;5.90;99.90
30648;DHT22;17683;53.360;9.736;2024-03-29T05:09:59;5.80;99.90
30648;DHT22;17683;53.360;9.736;2024-03-29T05:12:25;5.90;99.90
30648;DHT22;17683;53.360;9.736;2024-03-29T05:14:51;5.90;99.90
30648;DHT22;17683;53.360;9.736;2024-03-29T05:17:17;5.90;99.90
30648;DHT22;17683;53.360;9.736;2024-03-29T05:19:45;6.00;99.90
30648;DHT22;17683;53.360;9.736;2024-03-29T05:22:11;6.00;99.90
30648;DHT22;17683;53.360;9.736;2024-03-29T05:24:37;6.00;99.90
30648;DHT22;17683;53.360;9.736;2024-03-29T05:27:03;6.10;99.90
30648;DHT22;17683;53.360;9.736;2024-03-29T05:29:28;6.00;99.90
30648;DHT22;17683;53.360;9.736;2024-03-29T05:31:54;6.10;99.90
30648;DHT22;17683;53.360;9.736;2024-03-29T05:34:20;6.10;99.90
30648;DHT22;17683;53.360;9.736;2024-03-29T05:36:45;6.10;99.90
30648;DHT22;17683;53.360;9.736;2024-03-29T05:39:11;6.10;99.90
30648;DHT22;17683;53.360;9.736;2024-03-29T05:41:37;6.10;99.90
30648;DHT22;17683;53.360;9.736;2024-03-29T05:44:04;6.20;99.90
30648;DHT22;17683;53.360;9.736;2024-03-29T05:46:30;6.20;99.90
30648;DHT22;17683;53.360;9.736;2024-03-29T05:48:55;6.30;99.90
30648;DHT22;17683;53.360;9.736;2024-03-29T05:51:21;6.30;99.90
30648;DHT22;17683;53.360;9.736;2024-03-29T05:53:47;6.30;99.90
30648;DHT22;17683;53.360;9.736;2024-03-29T05:56:12;6.40;99.90
30648;DHT22;17683;53.360;9.736;2024-03-29T05:58:38;6.40;99.90
30648;DHT22;17683;53.360;9.736;2024-03-29T06:01:04;6.40;99.90
30648;DHT22;17683;53.360;9.736;2024-03-29T06:03:30;6.40;99.90
30648;DHT22;17683;53.360;9.736;2024-03-29T06:05:56;6.50;99.90
30648;DHT22;17683;53.360;9.736;2024-03-29T06:08:22;6.50;99.90
30648;DHT22;17683;53.360;9.736;2024-03-29T06:10:49;6.60;99.90
30648;DHT22;17683;53.360;9.736;2024-03-29T06:13:15;6.60;99.90
30648;DHT22;17683;53.360;9.736;2024-03-29T06:15:55;6.60;99.90
30648;DHT22;17683;53.360;9.736;2024-03-29T06:18:59;6.70;99.90
30648;DHT22;17683;53.360;9.736;2024-03-29T06:21:25;6.70;99.90
30648;DHT22;17683;53.360;9.736;2024-03-29T06:23:50;6.80;99.90
30648;DHT22;17683;53.360;9.736;2024-03-29T06:26:16;6.80;99.90
30648;DHT22;17683;53.360;9.736;2024-03-29T06:28:42;6.90;99.90
30648;DHT22;17683;53.360;9.736;2024-03-29T06:31:08;6.90;99.90
30648;DHT22;17683;53.360;9.736;2024-03-29T06:33:33;7.00;99.90
30648;DHT22;17683;53.360;9.736;2024-03-29T06:35:59;7.00;99.90
30648;DHT22;17683;53.360;9.736;2024-03-29T06:38:25;7.10;99.90
30648;DHT22;17683;53.360;9.736;2024-03-29T06:40:50;7.10;99.90
30648;DHT22;17683;53.360;9.736;2024-03-29T06:43:16;7.10;99.90
30648;DHT22;17683;53.360;9.736;2024-03-29T06:45:42;7.20;99.90
30648;DHT22;17683;53.360;9.736;2024-03-29T06:48:11;7.20;99.90
30648;DHT22;17683;53.360;9.736;2024-03-29T06:50:40;7.40;99.90
30648;DHT22;17683;53.360;9.736;2024-03-29T06:53:06;7.40;99.90
30648;DHT22;17683;53.360;9.736;2024-03-29T06:55:34;7.50;99.90
30648;DHT22;17683;53.360;9.736;2024-03-29T06:58:02;7.50;99.90
30648;DHT22;17683;53.360;9.736;2024-03-29T07:00:28;7.50;99.90
30648;DHT22;17683;53.360;9.736;2024-03-29T07:02:54;7.60;99.90
30648;DHT22;17683;53.360;9.736;2024-03-29T07:05:19;7.60;99.90
30648;DHT22;17683;53.360;9.736;2024-03-29T07:07:45;7.70;99.90
30648;DHT22;17683;53.360;9.736;2024-03-29T07:10:13;7.80;99.90
30648;DHT22;17683;53.360;9.736;2024-03-29T07:12:38;7.80;99.90
30648;DHT22;17683;53.360;9.736;2024-03-29T07:15:04;7.80;99.90
30648;DHT22;17683;53.360;9.736;2024-03-29T07:17:30;7.80;99.90
30648;DHT22;17683;53.360;9.736;2024-03-29T07:19:56;7.90;99.90
30648;DHT22;17683;53.360;9.736;2024-03-29T07:22:22;7.90;99.90
30648;DHT22;17683;53.360;9.736;2024-03-29T07:24:48;8.00;99.90
30648;DHT22;17683;53.360;9.736;2024-03-29T07:27:13;8.10;99.90
30648;DHT22;17683;53.360;9.736;2024-03-29T07:29:42;8.20;99.90
30648;DHT22;17683;53.360;9.736;2024-03-29T07:32:09;8.20;99.90
30648;DHT22;17683;53.360;9.736;2024-03-29T07:34:35;8.30;99.90
30648;DHT22;17683;53.360;9.736;2024-03-29T07:37:01;8.40;99.90
30648;DHT22;17683;53.360;9.736;2024-03-29T07:39:27;8.40;99.90
30648;DHT22;17683;53.360;9.736;2024-03-29T07:41:53;8.50;99.90
30648;DHT22;17683;53.360;9.736;2024-03-29T07:44:19;8.50;99.90
30648;DHT22;17683;53.360;9.736;2024-03-29T07:46:44;8.60;99.90
30648;DHT22;17683;53.360;9.736;2024-03-29T07:49:12;8.70;99.90
30648;DHT22;17683;53.360;9.736;2024-03-29T07:51:38;8.70;99.90
30648;DHT22;17683;53.360;9.736;2024-03-29T07:54:04;8.80;99.90
30648;DHT22;17683;53.360;9.736;2024-03-29T07:56:30;8.80;99.90
30648;DHT22;17683;53.360;9.736;2024-03-29T07:58:56;8.90;99.90
30648;DHT22;17683;53.360;9.736;2024-03-29T08:01:23;8.90;99.90
30648;DHT22;17683;53.360;9.736;2024-03-29T08:03:51;8.90;99.90
30648;DHT22;17683;53.360;9.736;2024-03-29T08:06:20;8.90;99.90
30648;DHT22;17683;53.360;9.736;2024-03-29T08:08:51;9.00;99.90
30648;DHT22;17683;53.360;9.736;2024-03-29T08:11:17;9.00;99.90
30648;DHT22;17683;53.360;9.736;2024-03-29T08:13:43;9.10;99.90
30648;DHT22;17683;53.360;9.736;2024-03-29T08:16:09;9.10;99.90
30648;DHT22;17683;53.360;9.736;2024-03-29T08:18:36;9.20;99.90
30648;DHT22;17683;53.360;9.736;2024-03-29T08:21:02;9.20;99.90
30648;DHT22;17683;53.360;9.736;2024-03-29T08:23:28;9.30;99.90
30648;DHT22;17683;53.360;9.736;2024-03-29T08:25:54;9.30;99.90
30648;DHT22;17683;53.360;9.736;2024-03-29T08:28:24;9.40;99.90
30648;DHT22;17683;53.360;9.736;2024-03-29T08:31:00;9.40;99.90
30648;DHT22;17683;53.360;9.736;2024-03-29T08:33:26;9.40;99.90
30648;DHT22;17683;53.360;9.736;2024-03-29T08:35:52;9.50;99.90
30648;DHT22;17683;53.360;9.736;2024-03-29T08:38:18;9.50;99.90
30648;DHT22;17683;53.360;9.736;2024-03-29T08:40:44;9.60;99.90
30648;DHT22;17683;53.360;9.736;2024-03-29T08:43:14;9.60;99.90
30648;DHT22;17683;53.360;9.736;2024-03-29T08:45:41;9.60;99.90
30648;DHT22;17683;53.360;9.736;2024-03-29T08:48:07;9.60;99.90
30648;DHT22;17683;53.360;9.736;2024-03-29T08:50:34;9.60;99.90
30648;DHT22;17683;53.360;9.736;2024-03-29T08:53:01;9.60;99.90
30648;DHT22;17683;53.360;9.736;2024-03-29T08:55:29;9.60;99.90
30648;DHT22;17683;53.360;9.736;2024-03-29T08:57:59;9.70;99.90
30648;DHT22;17683;53.360;9.736;2024-03-29T09:00:26;9.70;99.90
30648;DHT22;17683;53.360;9.736;2024-03-29T09:02:52;9.70;99.90
30648;DHT22;17683;53.360;9.736;2024-03-29T09:05:17;9.70;99.90
30648;DHT22;17683;53.360;9.736;2024-03-29T09:07:43;9.80;99.90
30648;DHT22;17683;53.360;9.736;2024-03-29T09:10:09;9.70;99.90
30648;DHT22;17683;53.360;9.736;2024-03-29T09:12:35;9.70;99.90
30648;DHT22;17683;53.360;9.736;2024-03-29T09:15:01;9.70;99.90
30648;DHT22;17683;53.360;9.736;2024-03-29T09:17:26;9.60;99.90
30648;DHT22;17683;53.360;9.736;2024-03-29T09:19:52;9.60;99.90
30648;DHT22;17683;53.360;9.736;2024-03-29T09:22:18;9.60;99.90
30648;DHT22;17683;53.360;9.736;2024-03-29T09:24:44;9.60;99.90
30648;DHT22;17683;53.360;9.736;2024-03-29T09:27:10;9.50;99.90
30648;DHT22;17683;53.360;9.736;2024-03-29T09:29:36;9.50;99.90
30648;DHT22;17683;53.360;9.736;2024-03-29T09:32:02;9.50;99.90
30648;DHT22;17683;53.360;9.736;2024-03-29T09:34:28;9.50;99.90
30648;DHT22;17683;53.360;9.736;2024-03-29T09:36:54;9.60;99.90
30648;DHT22;17683;53.360;9.736;2024-03-29T09:39:20;9.60;99.90
30648;DHT22;17683;53.360;9.736;2024-03-29T09:41:45;9.70;99.90
30648;DHT22;17683;53.360;9.736;2024-03-29T09:44:12;9.80;99.90
30648;DHT22;17683;53.360;9.736;2024-03-29T09:46:38;9.90;99.90
30648;DHT22;17683;53.360;9.736;2024-03-29T09:49:06;10.00;99.90
30648;DHT22;17683;53.360;9.736;2024-03-29T09:51:37;10.10;99.90
30648;DHT22;17683;53.360;9.736;2024-03-29T09:54:05;10.20;99.90
30648;DHT22;17683;53.360;9.736;2024-03-29T09:56:33;10.20;99.90
30648;DHT22;17683;53.360;9.736;2024-03-29T09:59:00;10.20;99.90
30648;DHT22;17683;53.360;9.736;2024-03-29T10:01:27;10.30;99.90
30648;DHT22;17683;53.360;9.736;2024-03-29T10:03:53;10.30;99.90
30648;DHT22;17683;53.360;9.736;2024-03-29T10:06:23;10.40;99.90
30648;DHT22;17683;53.360;9.736;2024-03-29T10:08:49;10.40;99.90
30648;DHT22;17683;53.360;9.736;2024-03-29T10:11:15;10.40;99.90
30648;DHT22;17683;53.360;9.736;2024-03-29T10:13:45;10.40;99.90
30648;DHT22;17683;53.360;9.736;2024-03-29T10:16:11;10.50;99.90
30648;DHT22;17683;53.360;9.736;2024-03-29T10:18:40;10.50;99.90
30648;DHT22;17683;53.360;9.736;2024-03-29T10:21:07;10.40;99.90
30648;DHT22;17683;53.360;9.736;2024-03-29T10:23:34;10.40;99.90
30648;DHT22;17683;53.360;9.736;2024-03-29T10:26:03;10.40;99.90
30648;DHT22;17683;53.360;9.736;2024-03-29T10:28:33;10.30;99.90
30648;DHT22;17683;53.360;9.736;2024-03-29T10:31:04;10.30;99.90
30648;DHT22;17683;53.360;9.736;2024-03-29T10:33:33;10.30;99.90
30648;DHT22;17683;53.360;9.736;2024-03-29T10:35:59;10.30;99.90
30648;DHT22;17683;53.360;9.736;2024-03-29T10:38:26;10.30;99.90
30648;DHT22;17683;53.360;9.736;2024-03-29T10:40:53;10.40;99.90
30648;DHT22;17683;53.360;9.736;2024-03-29T10:43:20;10.50;99.90
30648;DHT22;17683;53.360;9.736;2024-03-29T10:45:47;10.60;99.90
30648;DHT22;17683;53.360;9.736;2024-03-29T10:48:15;10.80;99.90
30648;DHT22;17683;53.360;9.736;2024-03-29T10:50:42;10.90;99.90
30648;DHT22;17683;53.360;9.736;2024-03-29T10:53:09;11.00;99.90
30648;DHT22;17683;53.360;9.736;2024-03-29T10:55:37;11.00;99.90
30648;DHT22;17683;53.360;9.736;2024-03-29T10:58:04;11.00;99.90
30648;DHT22;17683;53.360;9.736;2024-03-29T11:00:36;11.10;99.90
30648;DHT22;17683;53.360;9.736;2024-03-29T11:03:18;11.00;99.90
30648;DHT22;17683;53.360;9.736;2024-03-29T11:05:48;11.00;99.90
30648;DHT22;17683;53.360;9.736;2024-03-29T11:08:21;11.00;99.90
30648;DHT22;17683;53.360;9.736;2024-03-29T11:10:50;11.00;99.90
30648;DHT22;17683;53.360;9.736;2024-03-29T11:15:50;11.00;99.90
30648;DHT22;17683;53.360;9.736;2024-03-29T11:18:17;10.90;99.90
30648;DHT22;17683;53.360;9.736;2024-03-29T11:20:46;10.90;99.90
30648;DHT22;17683;53.360;9.736;2024-03-29T11:23:22;10.90;99.90
30648;DHT22;17683;53.360;9.736;2024-03-29T11:25:52;10.80;99.90
30648;DHT22;17683;53.360;9.736;2024-03-29T11:28:28;10.80;99.90
30648;DHT22;17683;53.360;9.736;2024-03-29T11:31:07;10.90;99.90
30648;DHT22;17683;53.360;9.736;2024-03-29T11:36:18;11.00;99.90
30648;DHT22;17683;53.360;9.736;2024-03-29T11:38:51;11.00;99.90
30648;DHT22;17683;53.360;9.736;2024-03-29T11:41:18;11.10;99.90
30648;DHT22;17683;53.360;9.736;2024-03-29T11:43:45;11.10;99.90
30648;DHT22;17683;53.360;9.736;2024-03-29T11:46:12;11.10;99.90
30648;DHT22;17683;53.360;9.736;2024-03-29T11:48:38;11.20;99.90
30648;DHT22;17683;53.360;9.736;2024-03-29T11:51:06;11.30;99.90
30648;DHT22;17683;53.360;9.736;2024-03-29T11:53:34;11.40;99.90
30648;DHT22;17683;53.360;9.736;2024-03-29T11:56:02;11.40;99.90
30648;DHT22;17683;53.360;9.736;2024-03-29T11:58:29;11.50;99.90
30648;DHT22;17683;53.360;9.736;2024-03-29T12:00:57;11.60;99.90
30648;DHT22;17683;53.360;9.736;2024-03-29T12:03:27;11.70;99.90
30648;DHT22;17683;53.360;9.736;2024-03-29T12:05:54;11.80;99.90
30648;DHT22;17683;53.360;9.736;2024-03-29T12:08:57;11.90;99.90
30648;DHT22;17683;53.360;9.736;2024-03-29T12:11:18;12.10;99.90
30648;DHT22;17683;53.360;9.736;2024-03-29T12:13:44;12.30;99.90
30648;DHT22;17683;53.360;9.736;2024-03-29T12:16:10;12.30;99.90
30648;DHT22;17683;53.360;9.736;2024-03-29T12:18:36;12.40;99.90
30648;DHT22;17683;53.360;9.736;2024-03-29T12:21:02;12.50;99.90
30648;DHT22;17683;53.360;9.736;2024-03-29T12:23:28;12.60;99.90
30648;DHT22;17683;53.360;9.736;2024-03-29T12:25:56;12.70;99.90
30648;DHT22;17683;53.360;9.736;2024-03-29T12:28:23;12.70;99.90
30648;DHT22;17683;53.360;9.736;2024-03-29T12:30:49;12.80;99.90
30648;DHT22;17683;53.360;9.736;2024-03-29T12:33:17;12.80;99.90
30648;DHT22;17683;53.360;9.736;2024-03-29T12:35:49;12.90;99.90
30648;DHT22;17683;53.360;9.736;2024-03-29T12:38:17;12.90;99.90
30648;DHT22;17683;53.360;9.736;2024-03-29T12:40:45;12.90;99.90
30648;DHT22;17683;53.360;9.736;2024-03-29T12:43:14;12.90;99.90
30648;DHT22;17683;53.360;9.736;2024-03-29T12:45:41;13.00;99.90
30648;DHT22;17683;53.360;9.736;2024-03-29T12:50:40;13.10;99.90
30648;DHT22;17683;53.360;9.736;2024-03-29T12:53:08;13.20;99.90
30648;DHT22;17683;53.360;9.736;2024-03-29T12:55:34;13.20;99.90
30648;DHT22;17683;53.360;9.736;2024-03-29T12:58:02;13.30;99.90
30648;DHT22;17683;53.360;9.736;2024-03-29T13:00:30;13.30;99.90
30648;DHT22;17683;53.360;9.736;2024-03-29T13:02:56;13.30;99.90
30648;DHT22;17683;53.360;9.736;2024-03-29T13:05:23;13.30;99.90
30648;DHT22;17683;53.360;9.736;2024-03-29T13:07:49;13.20;99.90
30648;DHT22;17683;53.360;9.736;2024-03-29T13:10:15;13.20;99.90
30648;DHT22;17683;53.360;9.736;2024-03-29T13:12:45;13.10;99.90
30648;DHT22;17683;53.360;9.736;2024-03-29T13:15:23;13.00;99.90
30648;DHT22;17683;53.360;9.736;2024-03-29T13:17:55;13.00;99.90
30648;DHT22;17683;53.360;9.736;2024-03-29T13:20:22;13.00;99.90
30648;DHT22;17683;53.360;9.736;2024-03-29T13:22:49;13.00;99.90
30648;DHT22;17683;53.360;9.736;2024-03-29T13:25:19;13.00;99.90
30648;DHT22;17683;53.360;9.736;2024-03-29T13:27:51;13.00;99.90
30648;DHT22;17683;53.360;9.736;2024-03-29T13:30:21;13.10;99.90
30648;DHT22;17683;53.360;9.736;2024-03-29T13:32:48;13.20;99.90
30648;DHT22;17683;53.360;9.736;2024-03-29T13:35:14;13.30;99.90
30648;DHT22;17683;53.360;9.736;2024-03-29T13:37:42;13.50;99.90
30648;DHT22;17683;53.360;9.736;2024-03-29T13:40:15;13.60;99.90
30648;DHT22;17683;53.360;9.736;2024-03-29T13:42:41;13.70;99.90
30648;DHT22;17683;53.360;9.736;2024-03-29T13:45:08;13.80;99.90
30648;DHT22;17683;53.360;9.736;2024-03-29T13:47:42;13.70;99.90
30648;DHT22;17683;53.360;9.736;2024-03-29T13:50:10;13.70;99.90
30648;DHT22;17683;53.360;9.736;2024-03-29T13:52:36;13.60;99.90
30648;DHT22;17683;53.360;9.736;2024-03-29T13:55:03;13.60;99.90
30648;DHT22;17683;53.360;9.736;2024-03-29T13:57:29;13.60;99.90
30648;DHT22;17683;53.360;9.736;2024-03-29T13:59:56;13.50;99.90
30648;DHT22;17683;53.360;9.736;2024-03-29T14:02:22;13.50;99.90
30648;DHT22;17683;53.360;9.736;2024-03-29T14:04:49;13.40;99.90
30648;DHT22;17683;53.360;9.736;2024-03-29T14:07:16;13.40;99.90
30648;DHT22;17683;53.360;9.736;2024-03-29T14:09:44;13.30;99.90
30648;DHT22;17683;53.360;9.736;2024-03-29T14:12:11;13.40;99.90
30648;DHT22;17683;53.360;9.736;2024-03-29T14:14:37;13.40;99.90
30648;DHT22;17683;53.360;9.736;2024-03-29T14:17:03;13.40;99.90
30648;DHT22;17683;53.360;9.736;2024-03-29T14:19:35;13.50;99.90
30648;DHT22;17683;53.360;9.736;2024-03-29T14:22:03;13.50;99.90
30648;DHT22;17683;53.360;9.736;2024-03-29T14:24:30;13.50;99.90
30648;DHT22;17683;53.360;9.736;2024-03-29T14:26:58;13.50;99.90
30648;DHT22;17683;53.360;9.736;2024-03-29T14:29:24;13.40;99.90
30648;DHT22;17683;53.360;9.736;2024-03-29T14:31:50;13.30;99.90
30648;DHT22;17683;53.360;9.736;2024-03-29T14:34:17;13.30;99.90
30648;DHT22;17683;53.360;9.736;2024-03-29T14:36:43;13.30;99.90
30648;DHT22;17683;53.360;9.736;2024-03-29T14:39:09;13.40;99.90
30648;DHT22;17683;53.360;9.736;2024-03-29T14:41:38;13.40;99.90
30648;DHT22;17683;53.360;9.736;2024-03-29T14:44:06;13.50;99.90
30648;DHT22;17683;53.360;9.736;2024-03-29T14:46:33;13.50;99.90
30648;DHT22;17683;53.360;9.736;2024-03-29T14:48:59;13.60;99.90
30648;DHT22;17683;53.360;9.736;2024-03-29T14:51:25;13.60;99.90
30648;DHT22;17683;53.360;9.736;2024-03-29T14:53:51;13.60;99.90
30648;DHT22;17683;53.360;9.736;2024-03-29T14:56:17;13.60;99.90
30648;DHT22;17683;53.360;9.736;2024-03-29T14:58:42;13.60;99.90
30648;DHT22;17683;53.360;9.736;2024-03-29T15:01:08;13.60;99.90
30648;DHT22;17683;53.360;9.736;2024-03-29T15:03:34;13.70;99.90
30648;DHT22;17683;53.360;9.736;2024-03-29T15:06:00;13.70;99.90
30648;DHT22;17683;53.360;9.736;2024-03-29T15:08:26;13.70;99.90
30648;DHT22;17683;53.360;9.736;2024-03-29T15:10:59;13.60;99.90
30648;DHT22;17683;53.360;9.736;2024-03-29T15:13:25;13.60;99.90
30648;DHT22;17683;53.360;9.736;2024-03-29T15:15:58;13.60;99.90
30648;DHT22;17683;53.360;9.736;2024-03-29T15:18:24;13.60;99.90
30648;DHT22;17683;53.360;9.736;2024-03-29T15:20:57;13.50;99.90
30648;DHT22;17683;53.360;9.736;2024-03-29T15:23:24;13.50;99.90
30648;DHT22;17683;53.360;9.736;2024-03-29T15:25:52;13.50;99.90
30648;DHT22;17683;53.360;9.736;2024-03-29T15:28:19;13.50;99.90
30648;DHT22;17683;53.360;9.736;2024-03-29T15:31:13;13.50;99.90
30648;DHT22;17683;53.360;9.736;2024-03-29T15:33:39;13.50;99.90
30648;DHT22;17683;53.360;9.736;2024-03-29T15:36:05;13.50;99.90
30648;DHT22;17683;53.360;9.736;2024-03-29T15:38:32;13.40;99.90
30648;DHT22;17683;53.360;9.736;2024-03-29T15:40:58;13.40;99.90
30648;DHT22;17683;53.360;9.736;2024-03-29T15:43:25;13.40;99.90
30648;DHT22;17683;53.360;9.736;2024-03-29T15:45:51;13.40;99.90
30648;DHT22;17683;53.360;9.736;2024-03-29T15:48:17;13.30;99.90